Shannock, RI (02875)

7:04 AM EDT on September 02, 2015 (GMT -0400)
Shannock Rd | | Change Station
CLOSE
Current Station
Personal Weather Station
Location: Charlestown, RI
Elevation: 194 ft
Nearby Weather Stations

Elev 194 ft 41.43 °N, 71.61 °W | Updated 44 seconds ago

Mostly Cloudy
Mostly Cloudy
64.0 °F
Feels Like 64.0 °F
N
0.0
Wind Variable Wind from SW
Gusts 0.0 mph

Today
High -- | Low -- °F
--% Chance of Precip.
Yesterday
High -- | Low -- °F
Precip. -- in
6:13 AM 7:18 PM
Waning Gibbous, 81% visible
Pressure 30.04 in
Visibility 0.2 miles
Clouds
Dew Point 63 °F
Humidity 97%
Rainfall 0.00 in
Snow Depth Not available.
UV Not available.
Pollen 9.00 out of 12
Air Quality Not available.
Flu Activity Not available.
METAR KWST 021053Z AUTO 00000KT M1/4SM FG VV001 17/16 A3004 RMK AO2 SLP171 T01670161
Pressure 30.04 in
Visibility 0.2 miles
Clouds
Dew Point 63 °F
Humidity 97%
Rainfall 0.00 in
Snow Depth Not available.
UV Not available.
Pollen 9.00 out of 12
Air Quality Not available.
Flu Activity Not available.
METAR KWST 021053Z AUTO 00000KT M1/4SM FG VV001 17/16 A3004 RMK AO2 SLP171 T01670161

10-Day Weather Forecast

×

Almanac

Astronomy

Sep. 02, 2015 Rise Set
Actual Time
Civil Twilight
Nautical Twilight
Astronomical Twilight
Moon
Length of Visible Light
Length of Day
Tomorrow will be .
, % of the Moon is Illuminated

Today's Extremes

State Highs State Lows

Community

WunderPhotos

Upload Photos

1,851,731 photos uploaded!

WunderBlogs® & News

Nearby

Air Quality

  Air Quality AQ Index Pollutant
Not available.

Snow Depth

Station Depth Elevation

Earthquake Activity

City Distance Mag. Time & Date
Minimum magnitude displayed is 2.5.

Coastal Water Temperatures

Place Temperature

Stations

Nearby Weather Stations

Station Location Temp. Windchill Dew Point Humidity Wind Precip. Elev Updated Type